Portada
METAR-TAF:

METAR-TAF

Aeroports :

Boone, Iowa, Estats Units d'Amèrica

Boone Municipal Airport

latitud: 42-03N, longitud: 093-51W, altitud: 354 m

Observació

L'informe es va fer fa 24 minuts, a les 01:35 UTC
Vent 6 kt del Sud
Temperatura 5°C
Humitat 70%
Pressió 1004 hPa
Visibilitat: 16.1 km
Cel cobert a una alçada de 5000 ft

METAR: KBNW 190135Z AUTO 17006KT 10SM OVC050 05/M00 A2966 RMK AO2

Hora: 19:59 (01:59 UTC)


TAF: manca

Observacions i pronòstics meteorològics de més de 4000 aeroports (METAR i TAF).

Les estacions disponibles són els punts grocs i vermells al mapa.

Posi el ratolí al punt desitjat per veure el nom de l'estació.

Feu clic per veure les observacions i els pronòstics meteorològics.

Per canviar el mapa: feu clic els botons verds amb una creu de color negre per apropar; al botó verd amb un guió per allunyar la imatge; o en les fletxes verdes per a mapes adjacents.


METAR-TAF: